Latest Weather Observations for Naracoorte

IDS60801

Issued at 12:01 pm CST Wednesday 29 July 2015 (issued every 30 minutes, with the page automatically refreshed every 10 minutes)

About weather observations | Map of weather stations | Latest weather observations for SA | Other Formats
Station Details ID: 026099 Name: NARACOORTE AERODROME Lat: -36.98 Lon: 140.73 Height: 49.72 m
Data from the previous 72 hours. | See also: Recent months at Naracoorte
Date/Time
CST
Temp
°C
App
Temp
°C
Dew
Point
Rel
Hum
%
Delta-T
°C
Wind Press
QNH
hPa
Press
MSL
hPa
Rain
since 9 am
mm
Dir
 
Spd
km/h
Gust
km/h
Spd
kts
Gust
kts
29/12:00pm 11.0 5.9 6.0 71 2.3 N 22 33 12 18 1029.2 1029.3 0.0
29/11:30am 10.9 5.8 5.9 71 2.3 N 22 32 12 17 1030.2 1030.3 0.0
29/11:00am 10.6 5.8 5.8 72 2.2 N 20 28 11 15 1030.7 1030.8 0.0
29/10:30am 10.1 5.0 5.9 75 1.9 N 22 32 12 17 1031.0 1031.1 0.0
29/10:00am 9.9 4.8 6.1 77 1.8 N 22 32 12 17 1031.2 1031.3 0.0
29/09:30am 9.7 5.3 6.4 80 1.5 N 19 28 10 15 1031.4 1031.5 0.0
29/09:00am 9.5 5.9 6.8 83 1.3 N 15 20 8 11 1031.8 1031.9 0.2
29/08:30am 9.1 5.9 6.7 85 1.1 N 13 17 7 9 1032.0 1032.1 0.2
29/08:00am 8.4 5.2 7.0 91 0.6 NNE 13 19 7 10 1031.5 1031.6 0.2
29/07:30am 8.3 4.8 7.1 92 0.6 NNE 15 20 8 11 1031.4 1031.5 0.2
29/07:00am 8.2 5.1 7.1 93 0.5 NNE 13 17 7 9 1031.4 1031.5 0.2
29/06:30am 7.8 5.0 7.1 95 0.3 N 11 13 6 7 1031.6 1031.7 0.2
29/06:00am 7.0 4.1 6.4 96 0.3 NNE 11 15 6 8 1031.5 1031.6 0.2
29/05:30am 6.8 3.8 6.2 96 0.3 N 11 15 6 8 1032.0 1032.1 0.2
29/05:00am 6.8 3.9 6.4 97 0.2 N 11 15 6 8 1031.4 1031.5 0.2
29/04:30am 6.3 3.3 5.9 97 0.2 N 11 15 6 8 1031.5 1031.6 0.2
29/04:00am 6.1 2.7 5.7 97 0.2 N 13 17 7 9 1031.6 1031.7 0.2
29/03:30am 6.2 2.8 5.8 97 0.2 NNE 13 15 7 8 1031.8 1031.9 0.2
29/03:00am 6.1 2.7 5.7 97 0.2 NNE 13 15 7 8 1031.7 1031.8 0.2
29/02:30am 6.2 3.1 5.6 96 0.3 NNE 11 15 6 8 1032.0 1032.1 0.2
29/02:00am 6.2 2.7 5.6 96 0.3 NNE 13 15 7 8 1032.2 1032.3 0.2
29/01:30am 6.7 3.3 6.0 95 0.3 NNE 13 17 7 9 1032.4 1032.5 0.0
29/01:00am 6.9 3.9 6.2 95 0.3 NNE 11 13 6 7 1032.5 1032.6 0.0
29/12:30am 7.5 5.1 6.8 95 0.3 N 9 11 5 6 1033.1 1033.2 0.0
29/12:00am 7.5 4.7 6.8 95 0.3 NNE 11 13 6 7 1033.2 1033.3 0.0
 
Date/Time
CST
Temp
°C
App
Temp
°C
Dew
Point
Rel
Hum
%
Delta-T
°C
Wind Press
QNH
hPa
Press
MSL
hPa
Rain
since 9 am
mm
Dir
 
Spd
km/h
Gust
km/h
Spd
kts
Gust
kts
28/11:30pm 7.7 4.5 7.0 95 0.3 NNE 13 15 7 8 1033.0 1033.1 0.0
28/11:00pm 8.0 5.6 7.1 94 0.4 N 9 11 5 6 1033.6 1033.7 0.0
28/10:30pm 7.7 5.3 6.8 94 0.4 NNE 9 11 5 6 1033.6 1033.7 0.0
28/10:00pm 8.2 6.2 7.3 94 0.4 N 7 9 4 5 1033.8 1033.9 0.0
28/09:30pm 8.1 6.1 7.2 94 0.4 N 7 9 4 5 1034.2 1034.3 0.0
28/09:00pm 7.8 5.3 6.7 93 0.5 N 9 13 5 7 1034.0 1034.1 0.0
28/08:30pm 7.9 5.5 6.8 93 0.5 NNW 9 13 5 7 1034.4 1034.5 0.0
28/08:00pm 8.5 6.2 7.3 92 0.6 NW 9 11 5 6 1034.4 1034.5 0.0
28/07:30pm 8.9 6.3 7.7 92 0.6 N 11 13 6 7 1034.4 1034.5 0.0
28/07:00pm 9.1 6.9 7.7 91 0.7 NW 9 13 5 7 1034.8 1034.9 0.0
28/06:30pm 9.0 7.2 7.8 92 0.6 NNW 7 9 4 5 1034.3 1034.4 0.0
28/06:00pm 9.4 7.3 8.2 92 0.6 NNW 9 11 5 6 1034.2 1034.3 0.0
28/05:30pm 9.6 7.0 7.9 89 0.8 WNW 11 13 6 7 1034.1 1034.2 0.0
28/05:00pm 10.4 8.9 8.3 87 1.0 NW 6 9 3 5 1033.9 1034.0 0.0
28/04:30pm 11.7 10.1 8.6 81 1.5 NNW 7 11 4 6 1033.9 1034.0 0.0
28/04:00pm 11.8 11.6 9.0 83 1.4 CALM 0 0 0 0 1033.9 1034.0 0.0
28/03:30pm 10.8 9.3 9.2 90 0.8 SW 7 11 4 6 1034.1 1034.2 0.0
28/03:00pm 11.8 9.9 9.0 83 1.4 W 9 20 5 11 1034.0 1034.1 0.0
28/02:30pm 11.2 9.0 9.5 89 0.8 W 11 17 6 9 1034.0 1034.1 0.0
28/02:00pm 11.1 6.8 9.5 90 0.8 WSW 22 28 12 15 1034.0 1034.1 0.0
28/01:30pm 12.7 9.1 8.4 75 2.1 W 17 20 9 11 1034.1 1034.2 0.0
28/01:00pm 13.7 11.1 9.4 75 2.2 W 13 19 7 10 1034.7 1034.8 0.0
28/12:30pm 11.9 8.7 8.4 79 1.7 W 15 17 8 9 1035.2 1035.3 0.0
28/12:00pm 11.9 9.7 9.3 84 1.3 W 11 15 6 8 1035.5 1035.6 0.0
28/11:30am 11.8 9.5 10.5 92 0.7 NW 13 17 7 9 1035.9 1036.0 0.0
28/11:00am 10.6 8.2 10.1 97 0.3 NW 13 17 7 9 1036.4 1036.5 0.0
28/10:30am 9.6 7.4 9.3 98 0.1 NNW 11 15 6 8 1037.0 1037.2 0.0
28/10:00am 8.3 5.0 8.0 98 0.1 NNW 15 19 8 10 1036.6 1036.7 0.0
28/09:30am 7.5 4.0 7.2 98 0.1 NNW 15 19 8 10 1036.4 1036.5 0.0
28/09:00am 6.6 2.9 6.3 98 0.1 NNW 15 19 8 10 1036.4 1036.5 0.2
28/08:30am 6.0 2.6 5.9 99 0.0 N 13 17 7 9 1036.2 1036.3 0.2
28/08:00am 4.7 1.4 4.6 99 0.0 N 11 17 6 9 1036.2 1036.3 0.2
28/07:30am 4.0 1.0 3.9 99 0.0 NNW 9 13 5 7 1036.2 1036.3 0.2
28/07:00am 4.0 0.6 3.9 99 0.0 NNW 11 15 6 8 1035.8 1035.9 0.2
28/06:30am 4.1 0.7 4.0 99 0.0 NNW 11 13 6 7 1035.7 1035.8 0.2
28/06:00am 4.7 1.0 4.6 99 0.0 NNW 13 17 7 9 1035.3 1035.4 0.2
28/05:30am 4.9 1.3 4.8 99 0.0 NNW 13 17 7 9 1034.9 1035.0 0.2
28/05:00am 5.0 2.1 4.9 99 0.0 NNW 9 17 5 9 1034.6 1034.7 0.2
28/04:30am 5.1 1.5 5.0 99 0.0 NNW 13 17 7 9 1034.2 1034.3 0.2
28/04:00am 5.2 1.6 5.1 99 0.0 NNW 13 17 7 9 1034.3 1034.4 0.0
28/03:30am 5.2 1.6 5.1 99 0.0 NNW 13 17 7 9 1034.5 1034.6 0.0
28/03:00am 5.7 2.2 5.4 98 0.1 NNW 13 17 7 9 1034.6 1034.7 0.0
28/02:30am 5.7 1.8 5.4 98 0.1 NNW 15 19 8 10 1034.7 1034.8 0.0
28/02:00am 5.5 1.6 5.2 98 0.1 NNW 15 19 8 10 1034.6 1034.7 0.0
28/01:30am 5.7 1.8 5.4 98 0.1 NNW 15 20 8 11 1034.6 1034.7 0.0
28/01:00am 6.1 2.7 5.8 98 0.1 NNW 13 17 7 9 1034.4 1034.5 0.0
28/12:30am 5.7 1.8 5.4 98 0.1 NNW 15 19 8 10 1034.2 1034.3 0.0
28/12:00am 6.0 2.2 5.7 98 0.1 NNW 15 19 8 10 1034.2 1034.3 0.0
 
Date/Time
CST
Temp
°C
App
Temp
°C
Dew
Point
Rel
Hum
%
Delta-T
°C
Wind Press
QNH
hPa
Press
MSL
hPa
Rain
since 9 am
mm
Dir
 
Spd
km/h
Gust
km/h
Spd
kts
Gust
kts
27/11:30pm 5.8 2.3 5.5 98 0.1 NNW 13 17 7 9 1034.1 1034.2 0.0
27/11:00pm 5.5 2.3 5.2 98 0.1 N 11 15 6 8 1034.1 1034.2 0.0
27/10:30pm 5.7 2.2 5.4 98 0.1 NNW 13 17 7 9 1034.1 1034.2 0.0
27/10:00pm 5.7 2.2 5.4 98 0.1 N 13 17 7 9 1034.0 1034.1 0.0
27/09:30pm 5.5 1.9 5.1 97 0.2 NNW 13 15 7 8 1034.1 1034.2 0.0
27/09:00pm 5.7 2.5 5.3 97 0.2 NNW 11 13 6 7 1034.0 1034.1 0.0
27/08:30pm 5.5 2.3 4.9 96 0.3 NNW 11 15 6 8 1033.8 1033.9 0.0
27/08:00pm 6.1 3.4 5.5 96 0.3 NNW 9 9 5 5 1033.8 1033.9 0.0
27/07:30pm 5.2 3.6 4.3 94 0.4 NNW 2 7 1 4 1033.8 1033.9 0.0
27/07:00pm 6.5 5.5 5.6 94 0.4 CALM 0 0 0 0 1033.7 1033.8 0.0
27/06:30pm 6.2 3.8 5.2 93 0.4 SW 7 7 4 4 1033.5 1033.6 0.0
27/06:00pm 6.6 3.1 5.4 92 0.5 WNW 13 15 7 8 1033.2 1033.3 0.0
27/05:30pm 7.8 4.9 6.6 92 0.5 WNW 11 15 6 8 1032.9 1033.0 0.0
27/05:00pm 8.6 6.2 6.9 89 0.8 WNW 9 13 5 7 1032.6 1032.7 0.0
27/04:30pm 9.8 6.5 7.9 88 0.9 WNW 15 17 8 9 1032.5 1032.6 0.0
27/04:00pm 9.9 5.3 8.2 89 0.8 W 22 30 12 16 1032.3 1032.4 0.0
27/03:30pm 10.5 6.5 8.3 86 1.1 WNW 19 22 10 12 1032.2 1032.3 0.0
27/03:00pm 11.7 6.3 8.0 78 1.8 WNW 26 30 14 16 1031.9 1032.0 0.0
27/02:30pm 12.1 6.3 8.0 76 2.0 WNW 28 35 15 19 1031.7 1031.8 0.0
27/02:00pm 11.1 7.1 8.3 83 1.4 SW 19 26 10 14 1031.4 1031.5 0.0
27/01:45pm 11.0 5.1 7.3 78 1.8 WSW 28 44 15 24 1031.4 1031.5 0.0
27/01:30pm 12.5 8.7 7.4 71 2.5 SW 17 22 9 12 1031.3 1031.4 0.0
27/01:00pm 11.8 8.3 7.3 74 2.2 SW 15 20 8 11 1031.3 1031.4 0.0
27/12:30pm 10.7 6.2 6.8 77 1.8 WSW 20 30 11 16 1031.5 1031.6 0.0
27/12:00pm 11.9 8.4 7.0 72 2.3 SW 15 22 8 12 1031.7 1031.8 0.0
27/11:30am 11.2 8.0 6.9 75 2.0 WSW 13 22 7 12 1032.2 1032.3 0.0
27/11:00am 10.9 7.4 7.2 78 1.8 WSW 15 20 8 11 1032.6 1032.7 0.0
27/10:30am 10.0 7.3 7.3 83 1.3 NW 11 13 6 7 1032.5 1032.6 0.0
27/10:00am 8.9 6.0 6.5 85 1.1 NW 11 13 6 7 1032.3 1032.4 0.0
27/09:30am 7.2 3.7 5.5 89 0.8 NW 13 17 7 9 1032.2 1032.3 0.0
27/09:00am 5.6 2.3 4.4 92 0.5 NNW 11 15 6 8 1031.9 1032.0 3.0
27/08:30am 4.5 0.3 3.6 94 0.4 NNW 15 19 8 10 1031.4 1031.5 3.0
27/08:00am 3.4 0.2 2.8 96 0.2 N 9 11 5 6 1030.9 1031.0 3.0
27/07:30am 2.9 -0.8 2.3 96 0.2 NNW 11 15 6 8 1030.8 1030.9 3.0
27/07:00am 2.6 -0.8 2.0 96 0.2 NNW 9 13 5 7 1030.3 1030.4 3.0
27/06:30am 2.3 -1.1 1.7 96 0.2 N 9 11 5 6 1030.0 1030.1 3.0
27/06:00am 1.9 -1.0 1.2 95 0.3 N 6 9 3 5 1029.6 1029.7 3.0
27/05:30am 2.6 -1.2 2.0 96 0.2 NNW 11 15 6 8 1029.2 1029.3 3.0
27/05:00am 3.0 -1.1 2.3 95 0.3 NNW 13 17 7 9 1028.9 1029.0 3.0
27/04:30am 2.7 -1.0 2.3 97 0.2 NNW 11 15 6 8 1028.9 1029.0 3.0
27/04:00am 2.6 -0.2 2.0 96 0.2 N 6 9 3 5 1028.8 1028.9 3.0
27/03:30am 2.8 -0.5 2.2 96 0.2 NNW 9 11 5 6 1028.6 1028.7 3.0
27/03:00am 2.9 0.1 2.2 95 0.3 N 6 7 3 4 1028.4 1028.5 3.0
27/02:30am 4.0 0.8 3.3 95 0.3 NW 9 11 5 6 1028.2 1028.3 3.0
27/02:00am 4.0 0.1 3.3 95 0.3 WNW 13 15 7 8 1028.1 1028.2 3.0
27/01:30am 3.1 -0.2 2.4 95 0.3 NW 9 11 5 6 1027.9 1028.0 2.8
27/01:00am 2.6 -0.8 1.9 95 0.3 NNW 9 9 5 5 1027.6 1027.7 2.8
27/12:30am 3.3 -1.1 2.6 95 0.3 WNW 15 19 8 10 1027.4 1027.5 2.8
27/12:00am 2.6 -1.6 1.7 94 0.3 WNW 13 17 7 9 1027.3 1027.4 2.8
 
Date/Time
CST
Temp
°C
App
Temp
°C
Dew
Point
Rel
Hum
%
Delta-T
°C
Wind Press
QNH
hPa
Press
MSL
hPa
Rain
since 9 am
mm
Dir
 
Spd
km/h
Gust
km/h
Spd
kts
Gust
kts
26/11:30pm 2.9 -0.5 2.0 94 0.3 NW 9 11 5 6 1027.0 1027.1 2.8
26/11:00pm 2.7 -1.9 1.8 94 0.4 WNW 15 17 8 9 1026.9 1027.0 2.8
26/10:30pm 2.2 -2.5 1.2 93 0.4 W 15 17 8 9 1026.7 1026.8 2.8
26/10:00pm 3.0 -1.1 2.0 93 0.4 WSW 13 17 7 9 1026.5 1026.6 2.8
26/09:30pm 2.6 -2.0 1.4 92 0.5 W 15 17 8 9 1026.3 1026.4 2.8
26/09:00pm 3.6 -0.9 2.0 89 0.6 WSW 15 17 8 9 1026.0 1026.1 2.8
26/08:30pm 4.8 0.1 3.0 88 0.7 WSW 17 19 9 10 1025.5 1025.6 2.8
26/08:00pm 3.6 -1.3 2.1 90 0.6 W 17 22 9 12 1025.1 1025.2 2.8
26/07:30pm 3.5 -0.6 2.2 91 0.5 WNW 13 19 7 10 1024.6 1024.7 2.8
26/07:00pm 3.4 -0.8 1.9 90 0.6 W 13 17 7 9 1024.2 1024.3 2.8
26/06:30pm 5.7 0.5 3.5 86 0.9 SW 20 30 11 16 1023.6 1023.7 2.8
26/06:15pm 6.1 1.0 3.9 86 0.9 WSW 20 44 11 24 1023.5 1023.6 2.8
26/06:00pm 4.2 -0.6 2.4 88 0.7 W 17 20 9 11 1023.1 1023.2 2.8
26/05:30pm 5.9 0.9 3.4 84 1.0 WSW 19 26 10 14 1022.6 1022.7 2.8
26/05:00pm 6.3 1.8 4.0 85 1.0 W 17 20 9 11 1022.1 1022.2 2.8
26/04:53pm 6.6 2.1 4.1 84 1.1 W 17 22 9 12 1022.0 1022.1 2.8
26/04:34pm 6.7 -1.7 3.7 81 1.3 SW 37 56 20 30 1021.8 1021.9 2.8
26/04:30pm 6.8 -0.8 4.1 83 1.2 SW 33 56 18 30 1021.9 1022.0 2.8
26/04:25pm 6.9 1.1 4.2 83 1.2 WSW 24 48 13 26 1021.8 1021.9 2.6
26/04:00pm 7.4 2.7 5.0 85 1.1 WSW 19 24 10 13 1021.5 1021.6 2.4
26/03:30pm 7.7 -0.1 2.8 71 2.1 WSW 33 65 18 35 1021.1 1021.2 1.6
26/03:00pm 9.5 2.0 4.3 70 2.3 WSW 33 41 18 22 1020.3 1020.3 1.6
26/02:30pm 8.2 0.2 4.0 75 1.8 WSW 35 46 19 25 1019.9 1019.9 1.6
26/02:14pm 8.3 -0.4 4.1 75 1.8 SW 39 50 21 27 1019.6 1019.6 1.6
26/02:00pm 11.0 3.5 6.2 72 2.2 WSW 35 44 19 24 1019.4 1019.4 1.6
26/01:30pm 8.7 0.1 4.5 75 1.8 WSW 39 54 21 29 1019.4 1019.4 1.6
26/01:02pm 10.0 2.3 3.3 63 2.9 WSW 33 57 18 31 1018.8 1018.8 1.6
26/01:00pm 9.7 2.8 4.7 71 2.2 W 30 44 16 24 1018.9 1018.9 1.6
26/12:30pm 8.8 2.5 5.7 81 1.4 WSW 28 35 15 19 1019.1 1019.1 1.6
26/12:05pm 7.0 -0.4 4.0 81 1.3 WSW 32 59 17 32 1019.4 1019.4 1.6

Other Formats:

Comma delimited format used in spreadsheet applications
http://www.bom.gov.au/fwo/IDS60801/IDS60801.94820.axf

JavaScript Object Notation format (JSON) in row-major order
http://www.bom.gov.au/fwo/IDS60801/IDS60801.94820.json